sensor_id;sensor_type;location;lat;lon;timestamp;P1;durP1;ratioP1;P2;durP2;ratioP2
42192;SDS011;52467;40.114;18.306;2023-04-24T09:55:39;11.80;;;3.87;;
42192;SDS011;52467;40.114;18.306;2023-04-24T09:58:09;10.40;;;3.70;;
42192;SDS011;52467;40.114;18.306;2023-04-24T10:00:36;8.00;;;3.80;;
42192;SDS011;52467;40.114;18.306;2023-04-24T10:03:03;6.90;;;3.97;;
42192;SDS011;52467;40.114;18.306;2023-04-24T10:05:32;8.30;;;3.97;;
42192;SDS011;52467;40.114;18.306;2023-04-24T10:08:04;7.90;;;3.80;;
42192;SDS011;52467;40.114;18.306;2023-04-24T10:10:34;8.90;;;3.83;;
42192;SDS011;52467;40.114;18.306;2023-04-24T10:13:04;9.32;;;3.72;;
42192;SDS011;52467;40.114;18.306;2023-04-24T10:15:32;8.35;;;4.28;;
42192;SDS011;52467;40.114;18.306;2023-04-24T10:17:59;10.80;;;4.22;;
42192;SDS011;52467;40.114;18.306;2023-04-24T10:20:27;10.10;;;4.10;;
42192;SDS011;52467;40.114;18.306;2023-04-24T10:22:57;8.88;;;3.72;;
42192;SDS011;52467;40.114;18.306;2023-04-24T10:25:27;8.00;;;3.80;;
42192;SDS011;52467;40.114;18.306;2023-04-24T10:27:58;8.43;;;3.38;;
42192;SDS011;52467;40.114;18.306;2023-04-24T10:30:27;8.60;;;3.42;;
42192;SDS011;52467;40.114;18.306;2023-04-24T10:32:56;7.10;;;3.00;;
42192;SDS011;52467;40.114;18.306;2023-04-24T10:35:23;9.88;;;3.53;;
42192;SDS011;52467;40.114;18.306;2023-04-24T10:37:58;7.93;;;3.30;;
42192;SDS011;52467;40.114;18.306;2023-04-24T10:40:33;4.68;;;3.08;;
42192;SDS011;52467;40.114;18.306;2023-04-24T10:43:05;7.83;;;3.40;;
42192;SDS011;52467;40.114;18.306;2023-04-24T10:45:34;6.57;;;3.35;;
42192;SDS011;52467;40.114;18.306;2023-04-24T10:50:44;10.88;;;3.55;;
42192;SDS011;52467;40.114;18.306;2023-04-24T10:53:12;8.15;;;3.30;;
42192;SDS011;52467;40.114;18.306;2023-04-24T10:55:42;10.23;;;3.60;;
42192;SDS011;52467;40.114;18.306;2023-04-24T10:58:12;7.28;;;3.53;;
42192;SDS011;52467;40.114;18.306;2023-04-24T11:00:39;7.00;;;3.00;;
42192;SDS011;52467;40.114;18.306;2023-04-24T11:03:22;10.05;;;3.33;;
42192;SDS011;52467;40.114;18.306;2023-04-24T11:06:01;8.70;;;3.53;;
42192;SDS011;52467;40.114;18.306;2023-04-24T11:08:38;9.50;;;3.63;;
42192;SDS011;52467;40.114;18.306;2023-04-24T11:11:12;9.30;;;3.73;;
42192;SDS011;52467;40.114;18.306;2023-04-24T11:19:00;10.45;;;4.20;;
42192;SDS011;52467;40.114;18.306;2023-04-24T11:27:38;9.50;;;4.22;;
42192;SDS011;52467;40.114;18.306;2023-04-24T11:29:58;13.05;;;4.40;;
42192;SDS011;52467;40.114;18.306;2023-04-24T11:32:35;12.02;;;4.22;;
42192;SDS011;52467;40.114;18.306;2023-04-24T11:35:14;12.23;;;4.10;;
42192;SDS011;52467;40.114;18.306;2023-04-24T11:37:46;12.50;;;4.30;;
42192;SDS011;52467;40.114;18.306;2023-04-24T11:40:20;10.15;;;4.03;;
42192;SDS011;52467;40.114;18.306;2023-04-24T11:42:55;9.10;;;3.63;;
42192;SDS011;52467;40.114;18.306;2023-04-24T11:45:23;11.10;;;4.60;;
42192;SDS011;52467;40.114;18.306;2023-04-24T11:47:51;11.65;;;4.30;;
42192;SDS011;52467;40.114;18.306;2023-04-24T11:50:20;10.07;;;3.95;;
42192;SDS011;52467;40.114;18.306;2023-04-24T11:52:49;9.02;;;4.03;;
42192;SDS011;52467;40.114;18.306;2023-04-24T11:57:46;9.88;;;3.95;;
42192;SDS011;52467;40.114;18.306;2023-04-24T12:00:19;9.13;;;3.75;;
42192;SDS011;52467;40.114;18.306;2023-04-24T12:02:48;12.13;;;3.80;;
42192;SDS011;52467;40.114;18.306;2023-04-24T12:05:20;11.45;;;4.07;;
42192;SDS011;52467;40.114;18.306;2023-04-24T12:07:52;10.82;;;4.22;;
42192;SDS011;52467;40.114;18.306;2023-04-24T12:10:23;10.68;;;4.60;;
42192;SDS011;52467;40.114;18.306;2023-04-24T12:12:52;11.90;;;3.67;;
42192;SDS011;52467;40.114;18.306;2023-04-24T12:15:20;11.50;;;3.75;;
42192;SDS011;52467;40.114;18.306;2023-04-24T12:17:47;12.00;;;4.10;;
42192;SDS011;52467;40.114;18.306;2023-04-24T12:20:17;13.07;;;3.75;;
42192;SDS011;52467;40.114;18.306;2023-04-24T12:22:51;11.65;;;3.28;;
42192;SDS011;52467;40.114;18.306;2023-04-24T12:25:27;11.63;;;3.40;;
42192;SDS011;52467;40.114;18.306;2023-04-24T12:30:32;13.30;;;3.80;;
42192;SDS011;52467;40.114;18.306;2023-04-24T12:33:01;5.60;;;3.03;;
42192;SDS011;52467;40.114;18.306;2023-04-24T12:35:31;8.85;;;3.03;;
42192;SDS011;52467;40.114;18.306;2023-04-24T12:38:06;10.80;;;3.85;;
42192;SDS011;52467;40.114;18.306;2023-04-24T12:40:35;8.07;;;3.40;;
42192;SDS011;52467;40.114;18.306;2023-04-24T12:43:02;9.73;;;3.10;;
42192;SDS011;52467;40.114;18.306;2023-04-24T12:45:43;12.95;;;3.40;;
42192;SDS011;52467;40.114;18.306;2023-04-24T12:48:11;8.73;;;2.50;;
42192;SDS011;52467;40.114;18.306;2023-04-24T12:50:40;8.15;;;2.95;;
42192;SDS011;52467;40.114;18.306;2023-04-24T12:53:09;10.47;;;3.00;;
42192;SDS011;52467;40.114;18.306;2023-04-24T12:55:37;8.25;;;2.80;;
42192;SDS011;52467;40.114;18.306;2023-04-24T12:58:04;7.30;;;2.80;;
42192;SDS011;52467;40.114;18.306;2023-04-24T13:00:32;8.57;;;2.83;;
42192;SDS011;52467;40.114;18.306;2023-04-24T13:02:59;12.82;;;3.15;;
42192;SDS011;52467;40.114;18.306;2023-04-24T13:05:27;8.70;;;3.25;;
42192;SDS011;52467;40.114;18.306;2023-04-24T13:07:54;9.18;;;3.22;;
42192;SDS011;52467;40.114;18.306;2023-04-24T13:10:22;10.18;;;3.20;;
42192;SDS011;52467;40.114;18.306;2023-04-24T13:12:49;10.93;;;3.55;;
42192;SDS011;52467;40.114;18.306;2023-04-24T13:15:16;8.63;;;3.03;;
42192;SDS011;52467;40.114;18.306;2023-04-24T13:17:44;9.88;;;2.85;;
42192;SDS011;52467;40.114;18.306;2023-04-24T13:20:11;9.25;;;2.92;;
42192;SDS011;52467;40.114;18.306;2023-04-24T13:22:38;7.32;;;2.88;;
42192;SDS011;52467;40.114;18.306;2023-04-24T13:25:06;6.45;;;2.70;;
42192;SDS011;52467;40.114;18.306;2023-04-24T13:27:33;9.88;;;3.15;;
42192;SDS011;52467;40.114;18.306;2023-04-24T13:30:01;9.30;;;2.95;;
42192;SDS011;52467;40.114;18.306;2023-04-24T13:32:29;9.70;;;3.17;;
42192;SDS011;52467;40.114;18.306;2023-04-24T13:34:57;8.95;;;2.97;;
42192;SDS011;52467;40.114;18.306;2023-04-24T13:37:24;8.98;;;3.22;;
42192;SDS011;52467;40.114;18.306;2023-04-24T13:39:51;7.53;;;2.83;;
42192;SDS011;52467;40.114;18.306;2023-04-24T13:42:19;9.15;;;3.08;;
42192;SDS011;52467;40.114;18.306;2023-04-24T13:44:47;6.13;;;3.17;;
42192;SDS011;52467;40.114;18.306;2023-04-24T13:47:14;11.70;;;3.70;;
42192;SDS011;52467;40.114;18.306;2023-04-24T13:49:41;8.17;;;3.10;;
42192;SDS011;52467;40.114;18.306;2023-04-24T13:52:09;7.93;;;3.60;;
42192;SDS011;52467;40.114;18.306;2023-04-24T13:54:37;9.18;;;3.63;;
42192;SDS011;52467;40.114;18.306;2023-04-24T13:57:04;10.43;;;3.50;;
42192;SDS011;52467;40.114;18.306;2023-04-24T13:59:31;8.27;;;3.47;;
42192;SDS011;52467;40.114;18.306;2023-04-24T14:01:59;9.23;;;3.73;;
42192;SDS011;52467;40.114;18.306;2023-04-24T14:04:26;6.47;;;3.00;;
42192;SDS011;52467;40.114;18.306;2023-04-24T14:06:53;12.23;;;3.30;;
42192;SDS011;52467;40.114;18.306;2023-04-24T14:09:21;12.27;;;3.50;;
42192;SDS011;52467;40.114;18.306;2023-04-24T14:11:49;8.20;;;3.35;;
42192;SDS011;52467;40.114;18.306;2023-04-24T14:14:17;8.75;;;3.00;;
42192;SDS011;52467;40.114;18.306;2023-04-24T14:16:45;8.80;;;2.83;;
42192;SDS011;52467;40.114;18.306;2023-04-24T14:19:12;9.05;;;2.60;;
42192;SDS011;52467;40.114;18.306;2023-04-24T14:21:39;8.30;;;2.42;;
42192;SDS011;52467;40.114;18.306;2023-04-24T14:24:07;7.55;;;2.90;;
42192;SDS011;52467;40.114;18.306;2023-04-24T14:26:35;11.10;;;2.50;;
42192;SDS011;52467;40.114;18.306;2023-04-24T14:29:02;8.30;;;2.70;;
42192;SDS011;52467;40.114;18.306;2023-04-24T14:31:36;8.85;;;2.40;;
42192;SDS011;52467;40.114;18.306;2023-04-24T14:34:04;9.90;;;3.10;;
42192;SDS011;52467;40.114;18.306;2023-04-24T14:36:31;6.55;;;2.85;;
42192;SDS011;52467;40.114;18.306;2023-04-24T14:38:58;9.05;;;3.10;;
42192;SDS011;52467;40.114;18.306;2023-04-24T14:41:26;10.25;;;3.15;;
42192;SDS011;52467;40.114;18.306;2023-04-24T14:43:53;5.70;;;2.63;;
42192;SDS011;52467;40.114;18.306;2023-04-24T14:46:20;7.70;;;3.00;;
42192;SDS011;52467;40.114;18.306;2023-04-24T14:48:49;9.65;;;2.85;;
42192;SDS011;52467;40.114;18.306;2023-04-24T14:51:16;9.10;;;3.28;;
42192;SDS011;52467;40.114;18.306;2023-04-24T14:53:43;9.02;;;3.10;;
42192;SDS011;52467;40.114;18.306;2023-04-24T14:56:13;7.90;;;2.92;;
42192;SDS011;52467;40.114;18.306;2023-04-24T14:58:42;7.17;;;2.63;;
42192;SDS011;52467;40.114;18.306;2023-04-24T15:01:10;9.40;;;2.77;;
42192;SDS011;52467;40.114;18.306;2023-04-24T15:03:37;9.43;;;3.20;;
42192;SDS011;52467;40.114;18.306;2023-04-24T15:06:05;9.67;;;3.43;;
42192;SDS011;52467;40.114;18.306;2023-04-24T15:08:32;10.07;;;3.10;;
42192;SDS011;52467;40.114;18.306;2023-04-24T15:11:00;6.25;;;2.65;;
42192;SDS011;52467;40.114;18.306;2023-04-24T15:13:27;7.55;;;2.70;;
42192;SDS011;52467;40.114;18.306;2023-04-24T15:15:55;10.38;;;3.33;;
42192;SDS011;52467;40.114;18.306;2023-04-24T15:18:22;11.60;;;3.40;;
42192;SDS011;52467;40.114;18.306;2023-04-24T15:20:49;12.35;;;2.85;;
42192;SDS011;52467;40.114;18.306;2023-04-24T15:23:17;12.10;;;3.50;;
42192;SDS011;52467;40.114;18.306;2023-04-24T15:25:44;11.48;;;3.55;;
42192;SDS011;52467;40.114;18.306;2023-04-24T15:28:11;10.15;;;3.47;;
42192;SDS011;52467;40.114;18.306;2023-04-24T15:30:39;10.65;;;3.28;;
42192;SDS011;52467;40.114;18.306;2023-04-24T15:33:06;14.20;;;3.63;;
42192;SDS011;52467;40.114;18.306;2023-04-24T15:35:33;12.93;;;3.55;;
42192;SDS011;52467;40.114;18.306;2023-04-24T15:38:01;12.80;;;3.75;;
42192;SDS011;52467;40.114;18.306;2023-04-24T15:40:29;11.88;;;3.60;;
42192;SDS011;52467;40.114;18.306;2023-04-24T15:42:56;12.50;;;3.38;;
42192;SDS011;52467;40.114;18.306;2023-04-24T15:45:24;17.88;;;4.45;;
42192;SDS011;52467;40.114;18.306;2023-04-24T15:47:51;11.35;;;3.63;;
42192;SDS011;52467;40.114;18.306;2023-04-24T15:50:19;11.45;;;3.40;;
42192;SDS011;52467;40.114;18.306;2023-04-24T15:52:48;14.10;;;4.22;;
42192;SDS011;52467;40.114;18.306;2023-04-24T15:55:15;13.43;;;3.83;;
42192;SDS011;52467;40.114;18.306;2023-04-24T15:57:42;12.95;;;4.25;;
42192;SDS011;52467;40.114;18.306;2023-04-24T16:00:10;10.68;;;3.40;;
42192;SDS011;52467;40.114;18.306;2023-04-24T16:02:38;10.98;;;3.60;;
42192;SDS011;52467;40.114;18.306;2023-04-24T16:05:06;11.93;;;3.57;;
42192;SDS011;52467;40.114;18.306;2023-04-24T16:07:37;11.48;;;3.78;;
42192;SDS011;52467;40.114;18.306;2023-04-24T16:10:04;13.97;;;3.37;;
42192;SDS011;52467;40.114;18.306;2023-04-24T16:12:32;10.05;;;4.05;;
42192;SDS011;52467;40.114;18.306;2023-04-24T16:15:00;12.93;;;3.63;;
42192;SDS011;52467;40.114;18.306;2023-04-24T16:17:27;16.35;;;4.07;;
42192;SDS011;52467;40.114;18.306;2023-04-24T16:19:54;11.55;;;3.75;;
42192;SDS011;52467;40.114;18.306;2023-04-24T16:22:22;11.95;;;4.05;;
42192;SDS011;52467;40.114;18.306;2023-04-24T16:24:49;9.38;;;3.60;;
42192;SDS011;52467;40.114;18.306;2023-04-24T16:27:16;12.30;;;3.33;;
42192;SDS011;52467;40.114;18.306;2023-04-24T16:29:44;11.45;;;3.28;;
42192;SDS011;52467;40.114;18.306;2023-04-24T16:32:11;8.27;;;3.08;;
42192;SDS011;52467;40.114;18.306;2023-04-24T16:34:38;7.47;;;2.90;;
42192;SDS011;52467;40.114;18.306;2023-04-24T16:37:06;10.40;;;3.15;;
42192;SDS011;52467;40.114;18.306;2023-04-24T16:39:33;10.07;;;3.17;;
42192;SDS011;52467;40.114;18.306;2023-04-24T16:42:01;9.35;;;2.78;;
42192;SDS011;52467;40.114;18.306;2023-04-24T16:44:28;10.55;;;3.42;;
42192;SDS011;52467;40.114;18.306;2023-04-24T16:46:56;12.23;;;3.22;;
42192;SDS011;52467;40.114;18.306;2023-04-24T16:49:23;8.68;;;2.97;;
42192;SDS011;52467;40.114;18.306;2023-04-24T16:51:52;8.70;;;3.33;;
42192;SDS011;52467;40.114;18.306;2023-04-24T16:54:19;7.38;;;3.00;;
42192;SDS011;52467;40.114;18.306;2023-04-24T16:56:46;9.18;;;3.50;;
42192;SDS011;52467;40.114;18.306;2023-04-24T16:59:14;10.77;;;3.30;;
42192;SDS011;52467;40.114;18.306;2023-04-24T17:01:41;14.07;;;3.20;;
42192;SDS011;52467;40.114;18.306;2023-04-24T17:04:08;12.20;;;3.67;;
42192;SDS011;52467;40.114;18.306;2023-04-24T17:06:36;11.27;;;3.60;;
42192;SDS011;52467;40.114;18.306;2023-04-24T17:09:03;12.90;;;3.30;;
42192;SDS011;52467;40.114;18.306;2023-04-24T17:11:32;11.18;;;3.17;;
42192;SDS011;52467;40.114;18.306;2023-04-24T17:13:59;8.80;;;3.10;;
42192;SDS011;52467;40.114;18.306;2023-04-24T17:16:27;8.87;;;3.30;;
42192;SDS011;52467;40.114;18.306;2023-04-24T17:18:54;8.82;;;2.80;;
42192;SDS011;52467;40.114;18.306;2023-04-24T17:21:22;10.27;;;3.83;;
42192;SDS011;52467;40.114;18.306;2023-04-24T17:23:49;12.43;;;3.70;;
42192;SDS011;52467;40.114;18.306;2023-04-24T17:26:17;9.73;;;3.67;;
42192;SDS011;52467;40.114;18.306;2023-04-24T17:28:44;10.35;;;3.70;;
42192;SDS011;52467;40.114;18.306;2023-04-24T17:31:12;11.25;;;4.40;;
42192;SDS011;52467;40.114;18.306;2023-04-24T17:33:39;12.00;;;3.67;;
42192;SDS011;52467;40.114;18.306;2023-04-24T17:36:06;12.77;;;4.30;;
42192;SDS011;52467;40.114;18.306;2023-04-24T17:38:34;9.87;;;3.60;;
42192;SDS011;52467;40.114;18.306;2023-04-24T17:41:01;10.00;;;3.40;;
42192;SDS011;52467;40.114;18.306;2023-04-24T17:43:29;7.78;;;3.67;;
42192;SDS011;52467;40.114;18.306;2023-04-24T17:45:56;10.88;;;3.88;;
42192;SDS011;52467;40.114;18.306;2023-04-24T17:48:27;9.05;;;3.00;;
42192;SDS011;52467;40.114;18.306;2023-04-24T17:50:55;10.23;;;3.70;;
42192;SDS011;52467;40.114;18.306;2023-04-24T17:53:22;5.73;;;3.00;;
42192;SDS011;52467;40.114;18.306;2023-04-24T17:55:49;12.30;;;3.58;;
42192;SDS011;52467;40.114;18.306;2023-04-24T17:58:16;14.63;;;4.15;;
42192;SDS011;52467;40.114;18.306;2023-04-24T18:00:44;9.73;;;3.40;;
42192;SDS011;52467;40.114;18.306;2023-04-24T18:03:12;11.77;;;3.67;;
42192;SDS011;52467;40.114;18.306;2023-04-24T18:05:39;8.95;;;3.60;;
42192;SDS011;52467;40.114;18.306;2023-04-24T18:08:07;9.17;;;3.30;;
42192;SDS011;52467;40.114;18.306;2023-04-24T18:10:34;13.30;;;4.15;;
42192;SDS011;52467;40.114;18.306;2023-04-24T18:13:02;9.82;;;3.47;;
42192;SDS011;52467;40.114;18.306;2023-04-24T18:15:30;12.27;;;3.78;;
42192;SDS011;52467;40.114;18.306;2023-04-24T18:17:57;14.13;;;3.72;;
42192;SDS011;52467;40.114;18.306;2023-04-24T18:20:25;13.97;;;3.73;;
42192;SDS011;52467;40.114;18.306;2023-04-24T18:22:52;10.75;;;3.55;;
42192;SDS011;52467;40.114;18.306;2023-04-24T18:25:20;11.77;;;3.47;;
42192;SDS011;52467;40.114;18.306;2023-04-24T18:27:52;9.63;;;3.20;;
42192;SDS011;52467;40.114;18.306;2023-04-24T18:30:23;8.55;;;3.25;;
42192;SDS011;52467;40.114;18.306;2023-04-24T18:32:51;10.10;;;3.63;;
42192;SDS011;52467;40.114;18.306;2023-04-24T18:35:19;9.97;;;3.10;;
42192;SDS011;52467;40.114;18.306;2023-04-24T18:37:46;12.02;;;3.22;;
42192;SDS011;52467;40.114;18.306;2023-04-24T18:40:14;9.95;;;3.28;;
42192;SDS011;52467;40.114;18.306;2023-04-24T18:42:42;10.10;;;3.20;;
42192;SDS011;52467;40.114;18.306;2023-04-24T18:45:10;8.52;;;3.10;;
42192;SDS011;52467;40.114;18.306;2023-04-24T18:47:39;9.15;;;3.10;;
42192;SDS011;52467;40.114;18.306;2023-04-24T18:50:06;8.70;;;3.67;;
42192;SDS011;52467;40.114;18.306;2023-04-24T18:52:34;13.98;;;3.60;;
42192;SDS011;52467;40.114;18.306;2023-04-24T18:55:02;12.68;;;3.85;;
42192;SDS011;52467;40.114;18.306;2023-04-24T18:57:30;13.18;;;4.03;;
42192;SDS011;52467;40.114;18.306;2023-04-24T18:59:57;7.95;;;3.10;;
42192;SDS011;52467;40.114;18.306;2023-04-24T19:02:25;11.93;;;3.20;;
42192;SDS011;52467;40.114;18.306;2023-04-24T19:04:52;8.57;;;3.15;;
42192;SDS011;52467;40.114;18.306;2023-04-24T19:07:20;8.38;;;3.38;;
42192;SDS011;52467;40.114;18.306;2023-04-24T19:09:47;8.35;;;3.03;;
42192;SDS011;52467;40.114;18.306;2023-04-24T19:12:14;9.77;;;3.50;;
42192;SDS011;52467;40.114;18.306;2023-04-24T19:14:42;9.87;;;3.40;;
42192;SDS011;52467;40.114;18.306;2023-04-24T19:17:09;9.35;;;2.72;;
42192;SDS011;52467;40.114;18.306;2023-04-24T19:19:36;14.18;;;3.55;;
42192;SDS011;52467;40.114;18.306;2023-04-24T19:22:04;9.18;;;3.13;;
42192;SDS011;52467;40.114;18.306;2023-04-24T19:24:33;10.25;;;3.53;;
42192;SDS011;52467;40.114;18.306;2023-04-24T19:27:00;11.55;;;3.55;;
42192;SDS011;52467;40.114;18.306;2023-04-24T19:29:27;11.57;;;3.10;;
42192;SDS011;52467;40.114;18.306;2023-04-24T19:31:55;12.88;;;3.20;;
42192;SDS011;52467;40.114;18.306;2023-04-24T19:34:24;10.27;;;3.30;;
42192;SDS011;52467;40.114;18.306;2023-04-24T19:36:52;11.07;;;3.17;;
42192;SDS011;52467;40.114;18.306;2023-04-24T19:39:19;13.55;;;3.85;;
42192;SDS011;52467;40.114;18.306;2023-04-24T19:41:46;10.90;;;3.50;;
42192;SDS011;52467;40.114;18.306;2023-04-24T19:44:14;14.75;;;3.28;;
42192;SDS011;52467;40.114;18.306;2023-04-24T19:46:42;13.23;;;3.67;;
42192;SDS011;52467;40.114;18.306;2023-04-24T19:49:10;14.77;;;3.33;;
42192;SDS011;52467;40.114;18.306;2023-04-24T19:51:38;11.43;;;3.08;;
42192;SDS011;52467;40.114;18.306;2023-04-24T19:54:05;7.55;;;3.30;;
42192;SDS011;52467;40.114;18.306;2023-04-24T19:56:33;9.60;;;3.07;;
42192;SDS011;52467;40.114;18.306;2023-04-24T19:59:00;15.98;;;3.53;;
42192;SDS011;52467;40.114;18.306;2023-04-24T20:01:28;11.50;;;3.15;;
42192;SDS011;52467;40.114;18.306;2023-04-24T20:03:57;10.63;;;3.33;;
42192;SDS011;52467;40.114;18.306;2023-04-24T20:06:25;12.90;;;2.83;;
42192;SDS011;52467;40.114;18.306;2023-04-24T20:08:52;12.70;;;3.33;;
42192;SDS011;52467;40.114;18.306;2023-04-24T20:11:19;11.70;;;3.20;;
42192;SDS011;52467;40.114;18.306;2023-04-24T20:13:47;9.98;;;2.45;;
42192;SDS011;52467;40.114;18.306;2023-04-24T20:16:14;7.05;;;2.70;;
42192;SDS011;52467;40.114;18.306;2023-04-24T20:18:42;11.90;;;2.42;;
42192;SDS011;52467;40.114;18.306;2023-04-24T20:21:10;15.35;;;2.58;;
42192;SDS011;52467;40.114;18.306;2023-04-24T20:23:38;10.75;;;2.20;;
42192;SDS011;52467;40.114;18.306;2023-04-24T20:26:05;8.40;;;2.70;;
42192;SDS011;52467;40.114;18.306;2023-04-24T20:28:34;8.40;;;2.25;;
42192;SDS011;52467;40.114;18.306;2023-04-24T20:31:02;10.43;;;2.53;;
42192;SDS011;52467;40.114;18.306;2023-04-24T20:33:29;13.95;;;3.28;;
42192;SDS011;52467;40.114;18.306;2023-04-24T20:35:57;14.10;;;2.60;;
42192;SDS011;52467;40.114;18.306;2023-04-24T20:38:25;10.98;;;2.50;;
42192;SDS011;52467;40.114;18.306;2023-04-24T20:40:52;11.30;;;2.28;;
42192;SDS011;52467;40.114;18.306;2023-04-24T20:43:23;11.43;;;2.78;;
42192;SDS011;52467;40.114;18.306;2023-04-24T20:45:53;11.57;;;2.70;;
42192;SDS011;52467;40.114;18.306;2023-04-24T20:48:20;12.75;;;2.85;;
42192;SDS011;52467;40.114;18.306;2023-04-24T20:50:48;9.43;;;2.77;;
42192;SDS011;52467;40.114;18.306;2023-04-24T20:53:15;10.38;;;2.63;;
42192;SDS011;52467;40.114;18.306;2023-04-24T20:55:43;6.93;;;2.40;;
42192;SDS011;52467;40.114;18.306;2023-04-24T20:58:10;10.85;;;2.40;;
42192;SDS011;52467;40.114;18.306;2023-04-24T21:00:37;9.13;;;2.20;;
42192;SDS011;52467;40.114;18.306;2023-04-24T21:03:05;5.95;;;1.92;;
42192;SDS011;52467;40.114;18.306;2023-04-24T21:05:32;11.38;;;2.20;;
42192;SDS011;52467;40.114;18.306;2023-04-24T21:07:59;9.70;;;2.50;;
42192;SDS011;52467;40.114;18.306;2023-04-24T21:10:26;7.20;;;1.95;;
42192;SDS011;52467;40.114;18.306;2023-04-24T21:12:54;7.30;;;1.93;;
42192;SDS011;52467;40.114;18.306;2023-04-24T21:15:21;10.00;;;2.40;;
42192;SDS011;52467;40.114;18.306;2023-04-24T21:17:48;5.28;;;2.30;;
42192;SDS011;52467;40.114;18.306;2023-04-24T21:20:16;8.10;;;2.00;;
42192;SDS011;52467;40.114;18.306;2023-04-24T21:22:43;8.35;;;2.05;;
42192;SDS011;52467;40.114;18.306;2023-04-24T21:25:11;5.85;;;1.48;;
42192;SDS011;52467;40.114;18.306;2023-04-24T21:27:38;5.68;;;1.70;;
42192;SDS011;52467;40.114;18.306;2023-04-24T21:30:06;5.85;;;1.60;;
42192;SDS011;52467;40.114;18.306;2023-04-24T21:32:34;3.05;;;1.23;;
42192;SDS011;52467;40.114;18.306;2023-04-24T21:35:01;6.50;;;1.50;;
42192;SDS011;52467;40.114;18.306;2023-04-24T21:37:29;6.17;;;1.60;;
42192;SDS011;52467;40.114;18.306;2023-04-24T21:39:59;5.72;;;1.45;;
42192;SDS011;52467;40.114;18.306;2023-04-24T21:42:26;5.93;;;1.58;;
42192;SDS011;52467;40.114;18.306;2023-04-24T21:44:53;9.40;;;1.65;;
42192;SDS011;52467;40.114;18.306;2023-04-24T21:47:21;5.05;;;1.60;;
42192;SDS011;52467;40.114;18.306;2023-04-24T21:49:48;2.90;;;1.30;;
42192;SDS011;52467;40.114;18.306;2023-04-24T21:52:15;5.75;;;1.38;;
42192;SDS011;52467;40.114;18.306;2023-04-24T21:54:43;4.75;;;1.38;;
42192;SDS011;52467;40.114;18.306;2023-04-24T21:57:12;3.38;;;1.30;;
42192;SDS011;52467;40.114;18.306;2023-04-24T21:59:40;5.82;;;1.55;;
42192;SDS011;52467;40.114;18.306;2023-04-24T22:02:07;5.30;;;1.30;;
42192;SDS011;52467;40.114;18.306;2023-04-24T22:04:35;5.70;;;1.75;;
42192;SDS011;52467;40.114;18.306;2023-04-24T22:07:03;4.97;;;1.52;;
42192;SDS011;52467;40.114;18.306;2023-04-24T22:09:30;4.90;;;1.37;;
42192;SDS011;52467;40.114;18.306;2023-04-24T22:11:57;3.40;;;1.42;;
42192;SDS011;52467;40.114;18.306;2023-04-24T22:14:25;4.32;;;1.30;;
42192;SDS011;52467;40.114;18.306;2023-04-24T22:16:53;4.72;;;1.38;;
42192;SDS011;52467;40.114;18.306;2023-04-24T22:19:22;7.50;;;1.65;;
42192;SDS011;52467;40.114;18.306;2023-04-24T22:21:51;7.18;;;1.80;;
42192;SDS011;52467;40.114;18.306;2023-04-24T22:24:19;7.68;;;1.85;;
42192;SDS011;52467;40.114;18.306;2023-04-24T22:26:46;5.63;;;1.70;;
42192;SDS011;52467;40.114;18.306;2023-04-24T22:29:13;5.70;;;1.70;;
42192;SDS011;52467;40.114;18.306;2023-04-24T22:31:41;6.18;;;1.85;;
42192;SDS011;52467;40.114;18.306;2023-04-24T22:34:08;5.90;;;2.00;;
42192;SDS011;52467;40.114;18.306;2023-04-24T22:36:36;12.45;;;3.13;;
42192;SDS011;52467;40.114;18.306;2023-04-24T22:39:03;7.93;;;2.78;;
42192;SDS011;52467;40.114;18.306;2023-04-24T22:41:31;6.72;;;2.50;;
42192;SDS011;52467;40.114;18.306;2023-04-24T22:43:58;4.95;;;1.90;;
42192;SDS011;52467;40.114;18.306;2023-04-24T22:46:25;7.28;;;1.88;;
42192;SDS011;52467;40.114;18.306;2023-04-24T22:48:53;4.85;;;2.00;;
42192;SDS011;52467;40.114;18.306;2023-04-24T22:51:24;6.38;;;2.28;;
42192;SDS011;52467;40.114;18.306;2023-04-24T22:53:51;7.10;;;2.67;;
42192;SDS011;52467;40.114;18.306;2023-04-24T22:56:20;5.53;;;1.67;;
42192;SDS011;52467;40.114;18.306;2023-04-24T22:58:47;6.20;;;2.20;;
42192;SDS011;52467;40.114;18.306;2023-04-24T23:01:18;5.90;;;1.63;;
42192;SDS011;52467;40.114;18.306;2023-04-24T23:03:47;7.38;;;2.03;;
42192;SDS011;52467;40.114;18.306;2023-04-24T23:06:14;5.03;;;1.63;;
42192;SDS011;52467;40.114;18.306;2023-04-24T23:08:44;8.55;;;1.75;;
42192;SDS011;52467;40.114;18.306;2023-04-24T23:11:12;7.43;;;1.80;;
42192;SDS011;52467;40.114;18.306;2023-04-24T23:13:39;7.15;;;2.10;;
42192;SDS011;52467;40.114;18.306;2023-04-24T23:16:09;6.73;;;1.90;;
42192;SDS011;52467;40.114;18.306;2023-04-24T23:18:44;5.38;;;2.10;;
42192;SDS011;52467;40.114;18.306;2023-04-24T23:21:11;5.28;;;1.85;;
42192;SDS011;52467;40.114;18.306;2023-04-24T23:23:38;7.63;;;2.40;;
42192;SDS011;52467;40.114;18.306;2023-04-24T23:26:06;5.13;;;1.50;;
42192;SDS011;52467;40.114;18.306;2023-04-24T23:28:33;6.82;;;1.40;;
42192;SDS011;52467;40.114;18.306;2023-04-24T23:31:01;6.55;;;1.90;;
42192;SDS011;52467;40.114;18.306;2023-04-24T23:33:29;5.78;;;1.80;;
42192;SDS011;52467;40.114;18.306;2023-04-24T23:35:56;5.17;;;1.50;;
42192;SDS011;52467;40.114;18.306;2023-04-24T23:38:24;5.70;;;1.52;;
42192;SDS011;52467;40.114;18.306;2023-04-24T23:40:51;4.43;;;1.30;;
42192;SDS011;52467;40.114;18.306;2023-04-24T23:43:18;6.35;;;1.40;;
42192;SDS011;52467;40.114;18.306;2023-04-24T23:45:46;5.80;;;1.40;;
42192;SDS011;52467;40.114;18.306;2023-04-24T23:48:13;4.68;;;1.50;;
42192;SDS011;52467;40.114;18.306;2023-04-24T23:50:40;4.75;;;1.90;;
42192;SDS011;52467;40.114;18.306;2023-04-24T23:53:09;7.03;;;2.10;;
42192;SDS011;52467;40.114;18.306;2023-04-24T23:55:36;5.28;;;2.08;;
42192;SDS011;52467;40.114;18.306;2023-04-24T23:58:03;7.60;;;2.22;;
